createdAt,value
2022-09-20T00:00:05.927Z,1009.41
2022-09-20T00:00:51.948Z,1009.68
2022-09-20T00:01:37.910Z,1009.58
2022-09-20T00:02:23.970Z,1009.51
2022-09-20T00:03:10.002Z,1009.51
2022-09-20T00:03:55.855Z,1009.58
2022-09-20T00:04:42.050Z,1009.51
2022-09-20T00:05:27.958Z,1009.51
2022-09-20T00:06:13.884Z,1009.51
2022-09-20T00:06:59.854Z,1009.51
2022-09-20T00:07:45.898Z,1009.51
2022-09-20T00:08:31.907Z,1009.41
2022-09-20T00:09:17.976Z,1009.51
2022-09-20T00:10:03.968Z,1009.51
2022-09-20T00:10:50.097Z,1009.41
2022-09-20T00:11:35.874Z,1009.58
2022-09-20T00:12:21.926Z,1009.58
2022-09-20T00:13:07.900Z,1009.58
2022-09-20T00:13:53.938Z,1009.68
2022-09-20T00:14:39.926Z,1009.51
2022-09-20T00:15:26.072Z,1009.58
2022-09-20T00:16:12.051Z,1009.58
2022-09-20T00:16:58.050Z,1009.51
2022-09-20T00:17:43.867Z,1009.58
2022-09-20T00:18:29.927Z,1009.68
2022-09-20T00:19:15.900Z,1009.68
2022-09-20T00:20:02.233Z,1009.68
2022-09-20T00:20:47.979Z,1009.51
2022-09-20T00:21:34.570Z,1009.51
2022-09-20T00:22:19.928Z,1009.41
2022-09-20T00:23:05.892Z,1009.41
2022-09-20T00:23:51.937Z,1009.89
2022-09-20T00:24:37.929Z,1009.51
2022-09-20T00:25:24.024Z,1009.68
2022-09-20T00:26:10.011Z,1009.68
2022-09-20T00:26:55.980Z,1009.58
2022-09-20T00:27:41.943Z,1009.68
2022-09-20T00:28:27.945Z,1009.68
2022-09-20T00:29:13.914Z,1009.68
2022-09-20T00:30:00.040Z,1009.58
2022-09-20T00:30:46.017Z,1009.51
2022-09-20T00:31:32.049Z,1009.68
2022-09-20T00:32:18.030Z,1009.58
2022-09-20T00:33:04.047Z,1009.58
2022-09-20T00:33:49.966Z,1009.51
2022-09-20T00:34:36.087Z,1009.79
2022-09-20T00:35:22.036Z,1009.68
2022-09-20T00:36:08.005Z,1009.68
2022-09-20T00:36:53.955Z,1009.68
2022-09-20T00:37:40.030Z,1009.58
2022-09-20T00:38:26.029Z,1009.58
2022-09-20T00:39:11.958Z,1009.58
2022-09-20T00:39:58.094Z,1009.79
2022-09-20T00:40:44.042Z,1009.51
2022-09-20T00:41:29.950Z,1009.41
2022-09-20T00:42:16.065Z,1009.41
2022-09-20T00:43:02.014Z,1009.41
2022-09-20T00:43:48.038Z,1009.58
2022-09-20T00:44:34.362Z,1009.99
2022-09-20T00:45:20.040Z,1009.68
2022-09-20T00:46:06.211Z,1009.68
2022-09-20T00:46:52.006Z,1009.68
2022-09-20T00:47:37.985Z,1009.79
2022-09-20T00:48:24.049Z,1009.51
2022-09-20T00:49:10.154Z,1009.51
2022-09-20T00:49:56.034Z,1009.68
2022-09-20T00:50:41.999Z,1009.58
2022-09-20T00:51:28.030Z,1009.58
2022-09-20T00:52:14.029Z,1009.58
2022-09-20T00:53:00.106Z,1009.68
2022-09-20T00:53:46.008Z,1009.58
2022-09-20T00:54:32.032Z,1009.58
2022-09-20T00:55:18.073Z,1009.68
2022-09-20T00:56:04.049Z,1009.68
2022-09-20T00:56:50.058Z,1009.58
2022-09-20T00:57:36.010Z,1009.58
2022-09-20T00:58:22.220Z,1009.68
2022-09-20T00:59:08.212Z,1009.68
2022-09-20T00:59:54.007Z,1009.41
2022-09-20T01:00:40.081Z,1009.58
2022-09-20T01:01:26.068Z,1009.58
2022-09-20T01:02:12.155Z,1009.58
2022-09-20T01:02:58.026Z,1009.41
2022-09-20T01:03:44.040Z,1009.68
2022-09-20T01:04:30.035Z,1009.68
2022-09-20T01:05:16.055Z,1009.51
2022-09-20T01:06:02.232Z,1009.51
2022-09-20T01:06:48.093Z,1009.58
2022-09-20T01:07:34.386Z,1009.41
2022-09-20T01:08:20.038Z,1009.58
2022-09-20T01:09:06.031Z,1009.58
2022-09-20T01:09:52.070Z,1009.68
2022-09-20T01:10:38.078Z,1009.68
2022-09-20T01:11:24.073Z,1009.58
2022-09-20T01:12:10.135Z,1009.58
2022-09-20T01:12:56.039Z,1009.68
2022-09-20T01:13:42.101Z,1009.58
2022-09-20T01:14:28.045Z,1009.79
2022-09-20T01:15:14.219Z,1009.79
2022-09-20T01:16:00.040Z,1009.58
2022-09-20T01:16:46.167Z,1009.58
2022-09-20T01:17:32.070Z,1009.51
2022-09-20T01:18:18.121Z,1009.68
2022-09-20T01:19:04.089Z,1009.68
2022-09-20T01:19:50.055Z,1009.68
2022-09-20T01:20:36.095Z,1009.79
2022-09-20T01:21:22.051Z,1009.68
2022-09-20T01:22:08.098Z,1009.68
2022-09-20T01:22:54.085Z,1009.51
2022-09-20T01:23:40.160Z,1009.51
2022-09-20T01:24:26.159Z,1009.68
2022-09-20T01:25:12.051Z,1009.68
2022-09-20T01:25:58.188Z,1009.58
2022-09-20T01:26:44.081Z,1009.51
2022-09-20T01:27:30.085Z,1009.79
2022-09-20T01:28:16.134Z,1009.79
2022-09-20T01:29:02.171Z,1009.79
2022-09-20T01:29:48.156Z,1009.89
2022-09-20T01:30:34.412Z,1009.51
2022-09-20T01:31:20.154Z,1009.58
2022-09-20T01:32:06.225Z,1009.58
2022-09-20T01:32:52.201Z,1009.79
2022-09-20T01:33:38.132Z,1009.51
2022-09-20T01:34:24.093Z,1009.58
2022-09-20T01:35:10.174Z,1009.58
2022-09-20T01:35:56.137Z,1009.79
2022-09-20T01:36:42.125Z,1009.51
2022-09-20T01:37:28.117Z,1009.58
2022-09-20T01:38:14.208Z,1009.58
2022-09-20T01:39:00.130Z,1009.58
2022-09-20T01:39:46.122Z,1009.68
2022-09-20T01:40:32.237Z,1009.58
2022-09-20T01:41:18.145Z,1009.41
2022-09-20T01:42:04.086Z,1009.41
2022-09-20T01:42:50.129Z,1009.79
2022-09-20T01:43:36.116Z,1009.51
2022-09-20T01:44:22.259Z,1009.68
2022-09-20T01:45:08.245Z,1009.68
2022-09-20T01:45:54.186Z,1009.68
2022-09-20T01:46:40.179Z,1009.58
2022-09-20T01:47:26.113Z,1009.58
2022-09-20T01:48:12.149Z,1009.58
2022-09-20T01:48:58.205Z,1009.51
2022-09-20T01:49:44.198Z,1009.68
2022-09-20T01:50:30.150Z,1009.41
2022-09-20T01:51:16.181Z,1009.51
2022-09-20T01:52:02.144Z,1009.51
2022-09-20T01:52:48.221Z,1009.58
2022-09-20T01:53:34.396Z,1009.51
2022-09-20T01:54:20.210Z,1009.58
2022-09-20T01:55:06.196Z,1009.58
2022-09-20T01:55:52.141Z,1009.51
2022-09-20T01:56:38.153Z,1009.68
2022-09-20T01:57:27.392Z,1009.51
2022-09-20T01:58:10.326Z,1009.51
2022-09-20T01:59:12.866Z,1009.51
2022-09-20T01:59:42.248Z,1009.79
2022-09-20T02:00:28.211Z,1009.51
2022-09-20T02:01:14.220Z,1009.51
2022-09-20T02:02:00.335Z,1009.79
2022-09-20T02:02:46.285Z,1009.79
2022-09-20T02:03:32.170Z,1009.58
2022-09-20T02:04:18.264Z,1009.58
2022-09-20T02:05:04.533Z,1009.58
2022-09-20T02:05:50.259Z,1009.79
2022-09-20T02:06:36.222Z,1009.68
2022-09-20T02:07:22.155Z,1009.68
2022-09-20T02:08:08.268Z,1009.68
2022-09-20T02:08:54.179Z,1009.68
2022-09-20T02:09:40.247Z,1009.68
2022-09-20T02:10:26.238Z,1009.68
2022-09-20T02:11:12.177Z,1009.68
2022-09-20T02:11:58.144Z,1009.68
2022-09-20T02:12:44.240Z,1009.68
2022-09-20T02:13:30.195Z,1009.58
2022-09-20T02:14:16.202Z,1009.51
2022-09-20T02:15:02.409Z,1009.51
2022-09-20T02:15:48.212Z,1009.58
2022-09-20T02:16:34.693Z,1009.58
2022-09-20T02:17:20.177Z,1009.58
2022-09-20T02:18:07.140Z,1009.58
2022-09-20T02:18:52.294Z,1009.58
2022-09-20T02:19:38.210Z,1009.58
2022-09-20T02:20:24.399Z,1009.99
2022-09-20T02:21:10.293Z,1009.99
2022-09-20T02:21:56.212Z,1009.79
2022-09-20T02:22:42.204Z,1009.68
2022-09-20T02:23:28.189Z,1009.51
2022-09-20T02:24:14.172Z,1009.51
2022-09-20T02:25:00.263Z,1009.58
2022-09-20T02:25:46.204Z,1009.68
2022-09-20T02:26:32.210Z,1009.58
2022-09-20T02:27:18.188Z,1009.58
2022-09-20T02:28:04.185Z,1009.58
2022-09-20T02:28:50.218Z,1009.79
2022-09-20T02:29:36.316Z,1009.51
2022-09-20T02:30:22.271Z,1009.79
2022-09-20T02:31:08.235Z,1009.79
2022-09-20T02:31:54.442Z,1009.99
2022-09-20T02:32:40.351Z,1009.51
2022-09-20T02:33:26.401Z,1009.58
2022-09-20T02:34:12.261Z,1009.58
2022-09-20T02:34:58.216Z,1009.68
2022-09-20T02:35:44.384Z,1009.68
2022-09-20T02:36:30.204Z,1009.68
2022-09-20T02:37:16.243Z,1009.79
2022-09-20T02:38:02.289Z,1009.79
2022-09-20T02:38:48.289Z,1009.41
2022-09-20T02:39:34.478Z,1009.89
2022-09-20T02:40:20.296Z,1009.68
2022-09-20T02:41:06.229Z,1009.68
2022-09-20T02:41:52.319Z,1009.68
2022-09-20T02:42:38.337Z,1009.51
2022-09-20T02:43:24.299Z,1009.58
2022-09-20T02:44:10.246Z,1009.58
2022-09-20T02:44:56.271Z,1009.79
2022-09-20T02:45:42.426Z,1009.51
2022-09-20T02:46:28.221Z,1009.51
2022-09-20T02:47:14.258Z,1009.51
2022-09-20T02:48:00.312Z,1009.58
2022-09-20T02:48:46.503Z,1009.89
2022-09-20T02:49:32.315Z,1009.79
2022-09-20T02:50:18.325Z,1009.79
2022-09-20T02:51:04.343Z,1009.79
2022-09-20T02:51:50.280Z,1009.58
2022-09-20T02:52:36.297Z,1009.79
2022-09-20T02:53:22.308Z,1009.79
2022-09-20T02:54:08.283Z,1009.79
2022-09-20T02:54:54.266Z,1009.68
2022-09-20T02:55:40.257Z,1009.79
2022-09-20T02:56:26.262Z,1010.09
2022-09-20T02:57:12.301Z,1010.09
2022-09-20T02:57:58.301Z,1009.68
2022-09-20T02:58:44.301Z,1009.68
2022-09-20T02:59:30.339Z,1009.68
2022-09-20T03:00:16.356Z,1009.79
2022-09-20T03:01:02.373Z,1009.79
2022-09-20T03:01:48.401Z,1009.68
2022-09-20T03:02:34.465Z,1009.79
2022-09-20T03:03:20.369Z,1009.79
2022-09-20T03:04:06.336Z,1009.79
2022-09-20T03:04:52.251Z,1009.58
2022-09-20T03:05:38.306Z,1009.68
2022-09-20T03:06:24.362Z,1009.79
2022-09-20T03:07:10.337Z,1009.79
2022-09-20T03:07:56.353Z,1009.89
2022-09-20T03:08:42.370Z,1009.58
2022-09-20T03:09:28.372Z,1009.68
2022-09-20T03:10:14.328Z,1009.68
2022-09-20T03:11:00.316Z,1009.79
2022-09-20T03:11:46.346Z,1009.51
2022-09-20T03:12:32.361Z,1009.68
2022-09-20T03:13:18.322Z,1009.89
2022-09-20T03:14:04.310Z,1009.89
2022-09-20T03:14:50.328Z,1009.51
2022-09-20T03:15:36.433Z,1009.68
2022-09-20T03:16:22.646Z,1009.79
2022-09-20T03:17:08.365Z,1009.79
2022-09-20T03:17:54.481Z,1009.89
2022-09-20T03:18:40.384Z,1009.79
2022-09-20T03:19:26.369Z,1009.79
2022-09-20T03:20:12.331Z,1009.79
2022-09-20T03:20:58.355Z,1009.89
2022-09-20T03:21:44.381Z,1009.68
2022-09-20T03:22:30.373Z,1009.68
2022-09-20T03:23:16.319Z,1009.79
2022-09-20T03:24:02.325Z,1009.79
2022-09-20T03:24:47.648Z,1009.79
2022-09-20T03:25:34.514Z,1009.79
2022-09-20T03:26:20.370Z,1009.89
2022-09-20T03:27:06.374Z,1009.89
2022-09-20T03:27:52.341Z,1009.89
2022-09-20T03:28:38.344Z,1009.89
2022-09-20T03:29:24.415Z,1009.99
2022-09-20T03:30:10.488Z,1009.99
2022-09-20T03:30:56.413Z,1009.99
2022-09-20T03:31:42.418Z,1009.68
2022-09-20T03:32:28.391Z,1010.09
2022-09-20T03:33:14.369Z,1010.09
2022-09-20T03:34:00.540Z,1009.58
2022-09-20T03:34:46.401Z,1009.99
2022-09-20T03:35:32.446Z,1009.89
2022-09-20T03:36:18.397Z,1009.99
2022-09-20T03:37:04.413Z,1009.99
2022-09-20T03:37:50.456Z,1009.99
2022-09-20T03:38:36.410Z,1009.99
2022-09-20T03:39:22.364Z,1009.99
2022-09-20T03:40:08.435Z,1009.99
2022-09-20T03:40:54.509Z,1009.89
2022-09-20T03:41:40.405Z,1009.79
2022-09-20T03:42:26.400Z,1009.68
2022-09-20T03:43:12.352Z,1009.68
2022-09-20T03:43:58.354Z,1009.79
2022-09-20T03:44:44.361Z,1009.99
2022-09-20T03:45:30.495Z,1009.99
2022-09-20T03:46:16.456Z,1009.89
2022-09-20T03:47:02.405Z,1009.89
2022-09-20T03:47:48.363Z,1009.68
2022-09-20T03:48:34.555Z,1009.79
2022-09-20T03:49:20.395Z,1009.89
2022-09-20T03:50:06.376Z,1009.89
2022-09-20T03:50:52.413Z,1009.68
2022-09-20T03:51:38.384Z,1009.99
2022-09-20T03:52:24.379Z,1009.79
2022-09-20T03:53:10.402Z,1009.79
2022-09-20T03:53:56.466Z,1009.89
2022-09-20T03:54:42.406Z,1009.89
2022-09-20T03:55:28.411Z,1009.89
2022-09-20T03:56:14.420Z,1009.89
2022-09-20T03:57:00.412Z,1009.89
2022-09-20T03:57:46.379Z,1009.79
2022-09-20T03:58:32.434Z,1009.79
2022-09-20T03:59:18.451Z,1009.79
2022-09-20T04:00:04.483Z,1009.79
2022-09-20T04:00:50.569Z,1009.68
2022-09-20T04:01:36.518Z,1009.79
2022-09-20T04:02:22.595Z,1009.68
2022-09-20T04:03:08.442Z,1009.68
2022-09-20T04:03:54.426Z,1009.58
2022-09-20T04:04:40.503Z,1009.68
2022-09-20T04:05:26.405Z,1009.68
2022-09-20T04:06:12.417Z,1009.68
2022-09-20T04:06:58.475Z,1009.68
2022-09-20T04:07:44.452Z,1009.68
2022-09-20T04:08:30.417Z,1009.99
2022-09-20T04:09:16.474Z,1009.68
2022-09-20T04:10:02.498Z,1009.68
2022-09-20T04:10:48.429Z,1009.99
2022-09-20T04:11:34.451Z,1009.79
2022-09-20T04:12:20.457Z,1009.79
2022-09-20T04:13:06.398Z,1009.79
2022-09-20T04:13:52.447Z,1009.89
2022-09-20T04:14:38.474Z,1009.99
2022-09-20T04:15:24.538Z,1009.99
2022-09-20T04:16:10.505Z,1009.99
2022-09-20T04:16:56.543Z,1009.89
2022-09-20T04:17:42.450Z,1009.89
2022-09-20T04:18:28.524Z,1010.09
2022-09-20T04:19:14.519Z,1010.09
2022-09-20T04:20:00.461Z,1009.79
2022-09-20T04:20:46.468Z,1010.09
2022-09-20T04:21:32.441Z,1009.99
2022-09-20T04:22:18.462Z,1009.89
2022-09-20T04:23:04.531Z,1009.89
2022-09-20T04:23:50.487Z,1010.09
2022-09-20T04:24:36.482Z,1010.19
2022-09-20T04:25:22.478Z,1010.09
2022-09-20T04:26:08.484Z,1010.09
2022-09-20T04:26:54.508Z,1010.09
2022-09-20T04:27:40.491Z,1009.89
2022-09-20T04:28:26.479Z,1010.09
2022-09-20T04:29:12.503Z,1010.09
2022-09-20T04:29:58.497Z,1009.79
2022-09-20T04:30:44.524Z,1009.89
2022-09-20T04:31:30.574Z,1010.19
2022-09-20T04:32:16.591Z,1009.89
2022-09-20T04:33:02.517Z,1009.89
2022-09-20T04:33:48.479Z,1010.19
2022-09-20T04:34:34.538Z,1010.09
2022-09-20T04:35:20.514Z,1010.09
2022-09-20T04:36:06.478Z,1010.09
2022-09-20T04:36:52.498Z,1010.19
2022-09-20T04:37:38.523Z,1010.19
2022-09-20T04:38:24.542Z,1009.89
2022-09-20T04:39:10.511Z,1009.89
2022-09-20T04:39:56.545Z,1009.79
2022-09-20T04:40:42.565Z,1010.29
2022-09-20T04:41:28.496Z,1010.19
2022-09-20T04:42:14.520Z,1010.19
2022-09-20T04:43:00.517Z,1010.09
2022-09-20T04:43:46.531Z,1010.09
2022-09-20T04:44:32.514Z,1009.99
2022-09-20T04:45:18.636Z,1009.99
2022-09-20T04:46:04.571Z,1009.99
2022-09-20T04:46:55.169Z,1010.19
2022-09-20T04:47:36.543Z,1010.09
2022-09-20T04:48:22.553Z,1009.99
2022-09-20T04:49:08.545Z,1009.99
2022-09-20T04:49:54.565Z,1009.99
2022-09-20T04:50:40.569Z,1010.19
2022-09-20T04:51:26.565Z,1009.99
2022-09-20T04:52:12.549Z,1009.99
2022-09-20T04:52:58.575Z,1009.89
2022-09-20T04:53:44.520Z,1009.89
2022-09-20T04:54:30.531Z,1010.09
2022-09-20T04:55:16.551Z,1010.19
2022-09-20T04:56:02.557Z,1010.19
2022-09-20T04:56:48.553Z,1010.09
2022-09-20T04:57:34.566Z,1010.29
2022-09-20T04:58:20.637Z,1010.40
2022-09-20T04:59:06.693Z,1010.40
2022-09-20T04:59:52.541Z,1010.09
2022-09-20T05:00:38.808Z,1010.19
2022-09-20T05:01:24.629Z,1010.19
2022-09-20T05:02:10.605Z,1010.19
2022-09-20T05:02:56.591Z,1009.99
2022-09-20T05:03:42.549Z,1010.29
2022-09-20T05:04:28.555Z,1010.40
2022-09-20T05:05:14.573Z,1010.40
2022-09-20T05:06:00.738Z,1010.29
2022-09-20T05:06:46.619Z,1010.29
2022-09-20T05:07:32.601Z,1010.29
2022-09-20T05:08:18.646Z,1010.19
2022-09-20T05:09:04.560Z,1010.19
2022-09-20T05:09:50.600Z,1010.40
2022-09-20T05:10:36.586Z,1010.29
2022-09-20T05:11:22.598Z,1010.40
2022-09-20T05:12:08.589Z,1010.40
2022-09-20T05:12:54.665Z,1010.40
2022-09-20T05:13:40.678Z,1010.19
2022-09-20T05:14:26.639Z,1010.50
2022-09-20T05:15:12.632Z,1010.50
2022-09-20T05:15:58.619Z,1010.40
2022-09-20T05:16:44.701Z,1010.29
2022-09-20T05:17:30.629Z,1010.19
2022-09-20T05:18:16.639Z,1010.29
2022-09-20T05:19:02.653Z,1010.29
2022-09-20T05:19:48.683Z,1010.50
2022-09-20T05:20:34.670Z,1010.60
2022-09-20T05:21:20.654Z,1010.40
2022-09-20T05:22:06.628Z,1010.40
2022-09-20T05:22:52.716Z,1010.29
2022-09-20T05:23:38.680Z,1010.40
2022-09-20T05:24:24.712Z,1010.50
2022-09-20T05:25:10.648Z,1010.50
2022-09-20T05:25:56.657Z,1010.50
2022-09-20T05:26:42.687Z,1010.50
2022-09-20T05:27:28.716Z,1010.29
2022-09-20T05:28:14.660Z,1010.29
2022-09-20T05:29:00.655Z,1010.40
2022-09-20T05:29:46.706Z,1010.29
2022-09-20T05:30:32.709Z,1010.60
2022-09-20T05:31:18.727Z,1010.29
2022-09-20T05:32:04.743Z,1010.29
2022-09-20T05:32:50.701Z,1010.50
2022-09-20T05:33:36.718Z,1010.19
2022-09-20T05:34:22.682Z,1010.29
2022-09-20T05:35:08.701Z,1010.29
2022-09-20T05:35:54.649Z,1010.40
2022-09-20T05:36:40.738Z,1010.40
2022-09-20T05:37:26.704Z,1010.40
2022-09-20T05:38:12.667Z,1010.40
2022-09-20T05:39:01.419Z,1010.40
2022-09-20T05:39:44.689Z,1010.29
2022-09-20T05:40:30.826Z,1010.40
2022-09-20T05:41:16.691Z,1010.40
2022-09-20T05:42:02.782Z,1010.40
2022-09-20T05:42:48.828Z,1010.40
2022-09-20T05:43:34.819Z,1010.50
2022-09-20T05:44:20.715Z,1010.40
2022-09-20T05:45:06.776Z,1010.40
2022-09-20T05:45:52.765Z,1010.50
2022-09-20T05:46:38.711Z,1010.40
2022-09-20T05:47:24.736Z,1010.40
2022-09-20T05:48:10.775Z,1010.40
2022-09-20T05:48:56.748Z,1010.40
2022-09-20T05:49:42.711Z,1010.29
2022-09-20T05:50:28.760Z,1010.50
2022-09-20T05:51:14.720Z,1010.50
2022-09-20T05:52:00.705Z,1010.29
2022-09-20T05:52:46.727Z,1010.50
2022-09-20T05:53:32.784Z,1010.50
2022-09-20T05:54:18.704Z,1010.50
2022-09-20T05:55:04.907Z,1010.50
2022-09-20T05:55:50.726Z,1010.70
2022-09-20T05:56:36.701Z,1010.60
2022-09-20T05:57:22.750Z,1010.50
2022-09-20T05:58:08.726Z,1010.50
2022-09-20T05:58:54.779Z,1010.50
2022-09-20T05:59:40.726Z,1010.40
2022-09-20T06:00:26.932Z,1010.60
2022-09-20T06:01:12.896Z,1010.60
2022-09-20T06:01:58.809Z,1010.50
2022-09-20T06:02:44.758Z,1010.40
2022-09-20T06:03:30.726Z,1010.60
2022-09-20T06:04:16.796Z,1010.50
2022-09-20T06:05:03.098Z,1010.50
2022-09-20T06:05:48.766Z,1010.70
2022-09-20T06:06:34.835Z,1010.60
2022-09-20T06:07:20.789Z,1010.70
2022-09-20T06:08:06.746Z,1010.70
2022-09-20T06:08:52.829Z,1010.50
2022-09-20T06:09:38.899Z,1010.80
2022-09-20T06:10:24.778Z,1010.70
2022-09-20T06:11:10.783Z,1010.70
2022-09-20T06:11:56.770Z,1010.70
2022-09-20T06:12:42.753Z,1010.70
2022-09-20T06:13:28.776Z,1010.40
2022-09-20T06:14:14.762Z,1010.40
2022-09-20T06:15:01.071Z,1010.80
2022-09-20T06:15:46.800Z,1010.70
2022-09-20T06:16:32.837Z,1010.70
2022-09-20T06:17:18.746Z,1010.70
2022-09-20T06:18:04.808Z,1010.70
2022-09-20T06:18:50.783Z,1010.60
2022-09-20T06:19:36.843Z,1010.80
2022-09-20T06:20:22.809Z,1010.50
2022-09-20T06:21:09.064Z,1010.50
2022-09-20T06:21:54.764Z,1010.70
2022-09-20T06:22:40.810Z,1010.70
2022-09-20T06:23:26.807Z,1010.90
2022-09-20T06:24:12.827Z,1010.90
2022-09-20T06:24:58.795Z,1010.80
2022-09-20T06:25:44.799Z,1010.60
2022-09-20T06:26:30.944Z,1011.00
2022-09-20T06:27:16.915Z,1010.90
2022-09-20T06:28:02.822Z,1010.90
2022-09-20T06:28:48.849Z,1010.80
2022-09-20T06:29:34.849Z,1010.80
2022-09-20T06:30:20.979Z,1010.80
2022-09-20T06:31:06.887Z,1010.80
2022-09-20T06:31:52.833Z,1010.70
2022-09-20T06:32:38.978Z,1010.80
2022-09-20T06:33:24.822Z,1010.70
2022-09-20T06:34:10.812Z,1010.70
2022-09-20T06:34:56.844Z,1010.70
2022-09-20T06:35:42.815Z,1010.80
2022-09-20T06:36:28.881Z,1010.70
2022-09-20T06:37:14.834Z,1010.70
2022-09-20T06:38:01.001Z,1010.90
2022-09-20T06:38:46.893Z,1010.80
2022-09-20T06:39:32.833Z,1010.70
2022-09-20T06:40:18.876Z,1010.70
2022-09-20T06:41:04.812Z,1010.70
2022-09-20T06:41:50.854Z,1010.70
2022-09-20T06:42:36.855Z,1010.70
2022-09-20T06:43:22.860Z,1010.80
2022-09-20T06:44:08.873Z,1010.80
2022-09-20T06:44:54.928Z,1010.80
2022-09-20T06:45:40.951Z,1010.70
2022-09-20T06:46:26.854Z,1010.80
2022-09-20T06:47:16.078Z,1010.80
2022-09-20T06:47:58.827Z,1010.70
2022-09-20T06:48:44.980Z,1010.80
2022-09-20T06:49:30.879Z,1010.80
2022-09-20T06:50:16.954Z,1010.90
2022-09-20T06:51:02.874Z,1010.90
2022-09-20T06:51:48.906Z,1010.70
2022-09-20T06:52:34.985Z,1010.80
2022-09-20T06:53:20.877Z,1010.60
2022-09-20T06:54:06.897Z,1010.60
2022-09-20T06:54:52.867Z,1010.80
2022-09-20T06:55:38.868Z,1010.80
2022-09-20T06:56:24.876Z,1010.70
2022-09-20T06:57:11.073Z,1010.70
2022-09-20T06:57:56.908Z,1010.60
2022-09-20T06:58:42.864Z,1010.90
2022-09-20T06:59:28.916Z,1010.80
2022-09-20T07:00:15.054Z,1010.80
2022-09-20T07:01:00.923Z,1010.70
2022-09-20T07:01:46.937Z,1010.80
2022-09-20T07:02:32.948Z,1010.80
2022-09-20T07:03:18.937Z,1010.80
2022-09-20T07:04:04.964Z,1010.80
2022-09-20T07:04:50.929Z,1010.70
2022-09-20T07:05:36.928Z,1010.60
2022-09-20T07:06:23.032Z,1010.90
2022-09-20T07:07:09.781Z,1010.90
2022-09-20T07:07:54.948Z,1010.80
2022-09-20T07:08:40.929Z,1010.70
2022-09-20T07:09:26.958Z,1011.00
2022-09-20T07:10:13.182Z,1011.00
2022-09-20T07:10:59.178Z,1010.90
2022-09-20T07:11:44.923Z,1010.90
2022-09-20T07:12:31.020Z,1010.90
2022-09-20T07:13:16.931Z,1010.90
2022-09-20T07:14:02.959Z,1010.90
2022-09-20T07:14:49.033Z,1010.80
2022-09-20T07:15:35.016Z,1010.80
2022-09-20T07:16:21.081Z,1010.70
2022-09-20T07:17:06.942Z,1010.70
2022-09-20T07:17:53.056Z,1010.80
2022-09-20T07:18:38.979Z,1010.90
2022-09-20T07:19:24.984Z,1010.70
2022-09-20T07:20:10.911Z,1010.70
2022-09-20T07:20:56.996Z,1010.90
2022-09-20T07:21:42.968Z,1010.80
2022-09-20T07:22:28.978Z,1011.00
2022-09-20T07:23:14.929Z,1011.00
2022-09-20T07:24:00.925Z,1010.90
2022-09-20T07:24:47.053Z,1010.80
2022-09-20T07:25:32.996Z,1011.00
2022-09-20T07:26:19.043Z,1010.90
2022-09-20T07:27:05.007Z,1010.90
2022-09-20T07:27:50.985Z,1010.80
2022-09-20T07:28:37.017Z,1010.70
2022-09-20T07:29:22.978Z,1010.90
2022-09-20T07:30:09.028Z,1010.90
2022-09-20T07:30:55.050Z,1010.90
2022-09-20T07:31:41.084Z,1010.90
2022-09-20T07:32:27.126Z,1011.11
2022-09-20T07:33:13.033Z,1011.11
2022-09-20T07:33:58.958Z,1011.00
2022-09-20T07:34:44.980Z,1010.90
2022-09-20T07:35:30.975Z,1010.90
2022-09-20T07:36:16.969Z,1010.80
2022-09-20T07:37:03.023Z,1010.80
2022-09-20T07:37:49.048Z,1011.11
2022-09-20T07:38:34.980Z,1011.11
2022-09-20T07:39:21.022Z,1011.11
2022-09-20T07:40:07.144Z,1011.11
2022-09-20T07:40:52.976Z,1011.31
2022-09-20T07:41:39.064Z,1010.80
2022-09-20T07:42:25.029Z,1010.90
2022-09-20T07:43:10.969Z,1010.90
2022-09-20T07:43:57.043Z,1010.90
2022-09-20T07:44:42.994Z,1010.80
2022-09-20T07:45:29.568Z,1010.90
2022-09-20T07:46:15.039Z,1010.90
2022-09-20T07:47:01.024Z,1011.00
2022-09-20T07:47:47.009Z,1011.00
2022-09-20T07:48:33.024Z,1011.11
2022-09-20T07:49:19.059Z,1011.00
2022-09-20T07:50:05.008Z,1011.00
2022-09-20T07:50:51.075Z,1011.11
2022-09-20T07:51:37.052Z,1011.11
2022-09-20T07:52:23.062Z,1011.00
2022-09-20T07:53:09.001Z,1011.00
2022-09-20T07:53:55.043Z,1011.11
2022-09-20T07:54:41.021Z,1011.31
2022-09-20T07:55:27.018Z,1011.21
2022-09-20T07:56:13.035Z,1011.21
2022-09-20T07:56:59.094Z,1010.90
2022-09-20T07:57:45.100Z,1011.00
2022-09-20T07:58:31.034Z,1011.21
2022-09-20T07:59:17.052Z,1011.21
2022-09-20T08:00:03.288Z,1011.21
2022-09-20T08:00:49.103Z,1011.00
2022-09-20T08:01:35.054Z,1011.21
2022-09-20T08:02:21.075Z,1011.11
2022-09-20T08:03:07.217Z,1011.11
2022-09-20T08:03:53.032Z,1011.21
2022-09-20T08:04:39.021Z,1011.00
2022-09-20T08:05:25.022Z,1011.11
2022-09-20T08:06:11.089Z,1011.11
2022-09-20T08:06:57.033Z,1011.21
2022-09-20T08:07:43.073Z,1011.11
2022-09-20T08:08:29.060Z,1011.11
2022-09-20T08:09:15.031Z,1011.11
2022-09-20T08:10:01.115Z,1010.90
2022-09-20T08:10:47.130Z,1011.11
2022-09-20T08:11:33.083Z,1011.00
2022-09-20T08:14:07.808Z,1011.21
2022-09-20T08:14:37.035Z,1011.11
2022-09-20T08:15:23.205Z,1011.21
2022-09-20T08:16:09.136Z,1011.21
2022-09-20T08:16:55.065Z,1011.51
2022-09-20T08:17:41.154Z,1011.41
2022-09-20T08:18:27.079Z,1011.51
2022-09-20T08:19:13.184Z,1011.51
2022-09-20T08:19:59.292Z,1011.41
2022-09-20T08:20:45.205Z,1011.41
2022-09-20T08:21:31.204Z,1011.11
2022-09-20T08:22:17.178Z,1011.31
2022-09-20T08:23:22.647Z,1011.31
2022-09-20T08:23:49.096Z,1011.31
2022-09-20T08:24:35.073Z,1011.41
2022-09-20T08:25:21.082Z,1011.11
2022-09-20T08:26:07.835Z,1011.11
2022-09-20T08:26:53.077Z,1011.51
2022-09-20T08:27:39.323Z,1011.21
2022-09-20T08:28:25.310Z,1011.41
2022-09-20T08:29:11.258Z,1011.41
2022-09-20T08:29:57.237Z,1011.21
2022-09-20T08:30:42.426Z,1011.21
2022-09-20T08:31:29.320Z,1011.31
2022-09-20T08:32:15.214Z,1011.31
2022-09-20T08:33:01.666Z,1011.31
2022-09-20T08:33:47.230Z,1011.41
2022-09-20T08:34:33.273Z,1011.31
2022-09-20T08:35:19.337Z,1011.31
2022-09-20T08:36:05.268Z,1011.31
2022-09-20T08:36:51.196Z,1011.72
2022-09-20T08:37:37.230Z,1011.41
2022-09-20T08:39:57.870Z,1011.31
2022-09-20T08:40:41.363Z,1011.51
2022-09-20T08:41:27.230Z,1011.21
2022-09-20T08:42:13.189Z,1011.21
2022-09-20T08:42:59.116Z,1011.41
2022-09-20T08:43:45.532Z,1011.21
2022-09-20T08:44:35.259Z,1011.61
2022-09-20T08:45:22.568Z,1011.31
2022-09-20T08:46:05.407Z,1011.31
2022-09-20T08:46:49.290Z,1011.41
2022-09-20T08:47:35.277Z,1011.41
2022-09-20T08:48:21.262Z,1011.31
2022-09-20T08:49:10.852Z,1011.31
2022-09-20T08:49:56.985Z,1011.51
2022-09-20T08:50:39.235Z,1011.61
2022-09-20T08:51:25.394Z,1011.51
2022-09-20T08:52:11.266Z,1011.51
2022-09-20T08:53:00.117Z,1011.41
2022-09-20T08:53:48.806Z,1011.41
2022-09-20T08:54:32.186Z,1011.51
2022-09-20T08:55:15.277Z,1011.51
2022-09-20T08:56:01.313Z,1011.31
2022-09-20T08:56:47.258Z,1011.31
2022-09-20T08:57:33.286Z,1011.41
2022-09-20T08:58:19.345Z,1011.51
2022-09-20T08:59:05.236Z,1011.51
2022-09-20T08:59:54.563Z,1011.51
2022-09-20T09:00:37.307Z,1011.51
2022-09-20T09:01:23.439Z,1011.31
2022-09-20T09:02:09.393Z,1011.31
2022-09-20T09:02:55.391Z,1011.51
2022-09-20T09:03:41.404Z,1011.31
2022-09-20T09:04:27.365Z,1011.31
2022-09-20T09:05:13.345Z,1011.31
2022-09-20T09:05:59.344Z,1011.21
2022-09-20T09:06:45.279Z,1011.31
2022-09-20T09:07:31.369Z,1011.41
2022-09-20T09:08:17.316Z,1011.51
2022-09-20T09:09:03.302Z,1011.51
2022-09-20T09:09:49.485Z,1011.41
2022-09-20T09:10:35.341Z,1011.41
2022-09-20T09:11:21.351Z,1011.41
2022-09-20T09:12:07.315Z,1011.41
2022-09-20T09:12:53.390Z,1011.11
2022-09-20T09:13:39.467Z,1011.41
2022-09-20T09:14:25.381Z,1011.41
2022-09-20T09:15:11.356Z,1011.41
2022-09-20T09:15:57.429Z,1011.11
2022-09-20T09:16:43.451Z,1011.41
2022-09-20T09:17:29.355Z,1011.31
2022-09-20T09:18:15.323Z,1011.31
2022-09-20T09:19:01.320Z,1011.31